createdAt,value
2023-04-29T00:01:38.957Z,10.69
2023-04-29T00:04:05.623Z,10.61
2023-04-29T00:06:32.289Z,10.60
2023-04-29T00:08:58.862Z,10.58
2023-04-29T00:11:25.398Z,10.51
2023-04-29T00:13:51.874Z,10.52
2023-04-29T00:16:18.620Z,10.47
2023-04-29T00:18:45.155Z,10.40
2023-04-29T00:21:11.618Z,10.39
2023-04-29T00:23:38.131Z,10.31
2023-04-29T00:26:04.632Z,10.19
2023-04-29T00:28:31.708Z,10.16
2023-04-29T00:30:58.461Z,10.19
2023-04-29T00:33:25.040Z,10.26
2023-04-29T00:35:51.582Z,10.31
2023-04-29T00:38:18.035Z,10.24
2023-04-29T00:40:44.532Z,10.16
2023-04-29T00:43:13.813Z,10.14
2023-04-29T00:45:40.409Z,10.13
2023-04-29T00:48:07.697Z,10.07
2023-04-29T00:50:34.411Z,10.05
2023-04-29T00:53:00.997Z,9.99
2023-04-29T00:55:27.534Z,9.93
2023-04-29T00:57:54.034Z,9.88
2023-04-29T01:00:20.673Z,9.87
2023-04-29T01:02:48.190Z,9.85
2023-04-29T01:05:15.331Z,9.86
2023-04-29T01:07:52.682Z,9.89
2023-04-29T01:10:27.642Z,9.86
2023-04-29T01:13:42.426Z,9.93
2023-04-29T01:16:17.357Z,9.90
2023-04-29T01:18:50.093Z,9.91
2023-04-29T01:21:16.553Z,9.92
2023-04-29T01:23:44.187Z,9.91
2023-04-29T01:26:10.779Z,9.93
2023-04-29T01:28:40.767Z,9.88
2023-04-29T01:31:23.945Z,9.90
2023-04-29T01:34:10.384Z,9.90
2023-04-29T01:36:49.052Z,9.96
2023-04-29T01:39:21.269Z,9.96
2023-04-29T01:42:02.931Z,10.04
2023-04-29T01:44:29.779Z,10.00
2023-04-29T01:46:56.457Z,10.01
2023-04-29T01:49:26.515Z,10.00
2023-04-29T01:51:52.958Z,9.92
2023-04-29T01:54:19.528Z,9.92
2023-04-29T01:56:46.042Z,9.93
2023-04-29T01:59:12.756Z,9.96
2023-04-29T02:01:39.249Z,10.00
2023-04-29T02:04:05.779Z,10.03
2023-04-29T02:06:33.519Z,10.08
2023-04-29T02:09:00.098Z,10.08
2023-04-29T02:11:27.019Z,10.13
2023-04-29T02:13:54.658Z,10.13
2023-04-29T02:16:21.232Z,10.08
2023-04-29T02:18:47.727Z,9.94
2023-04-29T02:21:14.175Z,9.87
2023-04-29T02:23:40.717Z,9.75
2023-04-29T02:26:07.411Z,9.66
2023-04-29T02:28:34.986Z,9.62
2023-04-29T02:31:01.654Z,9.64
2023-04-29T02:33:28.323Z,9.68
2023-04-29T02:35:54.886Z,9.66
2023-04-29T02:38:21.405Z,9.68
2023-04-29T02:40:47.898Z,9.73
2023-04-29T02:43:14.356Z,9.72
2023-04-29T02:45:40.929Z,9.64
2023-04-29T02:48:07.589Z,9.57
2023-04-29T02:50:34.181Z,9.47
2023-04-29T02:53:00.724Z,9.43
2023-04-29T02:55:27.307Z,9.36
2023-04-29T02:57:53.767Z,9.27
2023-04-29T03:00:21.116Z,9.26
2023-04-29T03:02:47.747Z,9.27
2023-04-29T03:05:14.398Z,9.16
2023-04-29T03:07:40.909Z,9.14
2023-04-29T03:10:07.946Z,9.17
2023-04-29T03:12:34.724Z,9.18
2023-04-29T03:15:01.321Z,9.19
2023-04-29T03:17:27.865Z,9.27
2023-04-29T03:19:54.595Z,9.33
2023-04-29T03:22:21.287Z,9.34
2023-04-29T03:24:47.755Z,9.35
2023-04-29T03:27:14.242Z,9.34
2023-04-29T03:29:40.753Z,9.36
2023-04-29T03:32:07.310Z,9.33
2023-04-29T03:34:34.374Z,9.35
2023-04-29T03:37:01.247Z,9.30
2023-04-29T03:39:32.177Z,9.30
2023-04-29T03:41:59.613Z,9.32
2023-04-29T03:44:26.346Z,9.30
2023-04-29T03:46:52.843Z,9.23
2023-04-29T03:49:19.358Z,9.23
2023-04-29T03:51:45.812Z,9.27
2023-04-29T03:54:13.099Z,9.22
2023-04-29T03:56:39.784Z,9.23
2023-04-29T03:59:06.410Z,9.24
2023-04-29T04:01:33.306Z,9.27
2023-04-29T04:04:00.206Z,9.24
2023-04-29T04:06:26.981Z,9.21
2023-04-29T04:08:53.431Z,9.19
2023-04-29T04:11:19.879Z,9.15
2023-04-29T04:13:46.371Z,9.16
2023-04-29T04:16:12.901Z,9.16
2023-04-29T04:18:39.552Z,9.13
2023-04-29T04:21:07.802Z,9.13
2023-04-29T04:23:34.312Z,9.10
2023-04-29T04:26:00.801Z,9.01
2023-04-29T04:28:27.371Z,9.01
2023-04-29T04:30:53.862Z,9.06
2023-04-29T04:33:20.384Z,9.11
2023-04-29T04:35:46.963Z,9.05
2023-04-29T04:38:13.606Z,9.04
2023-04-29T04:40:42.985Z,9.04
2023-04-29T04:43:09.503Z,9.01
2023-04-29T04:45:36.628Z,9.05
2023-04-29T04:48:03.300Z,9.08
2023-04-29T04:50:29.976Z,9.13
2023-04-29T04:52:56.920Z,9.09
2023-04-29T04:55:23.740Z,9.03
2023-04-29T04:57:50.608Z,9.01
2023-04-29T05:00:17.283Z,9.01
2023-04-29T05:02:43.943Z,9.04
2023-04-29T05:05:10.519Z,8.99
2023-04-29T05:07:37.012Z,8.98
2023-04-29T05:10:03.740Z,8.90
2023-04-29T05:12:30.994Z,8.86
2023-04-29T05:14:57.780Z,8.86
2023-04-29T05:17:24.278Z,8.76
2023-04-29T05:19:51.309Z,8.69
2023-04-29T05:22:17.870Z,8.64
2023-04-29T05:24:44.358Z,8.66
2023-04-29T05:27:10.908Z,8.65
2023-04-29T05:29:38.036Z,8.66
2023-04-29T05:32:04.733Z,8.72
2023-04-29T05:34:31.289Z,8.78
2023-04-29T05:36:57.825Z,8.81
2023-04-29T05:39:24.321Z,8.86
2023-04-29T05:41:50.869Z,8.90
2023-04-29T05:44:17.324Z,8.97
2023-04-29T05:46:43.848Z,8.99
2023-04-29T05:49:10.383Z,9.02
2023-04-29T05:51:36.963Z,9.07
2023-04-29T05:54:03.482Z,9.04
2023-04-29T05:56:29.957Z,9.00
2023-04-29T05:58:56.436Z,9.06
2023-04-29T06:01:23.400Z,9.12
2023-04-29T06:03:50.153Z,9.12
2023-04-29T06:06:16.922Z,9.19
2023-04-29T06:08:43.582Z,9.31
2023-04-29T06:11:10.243Z,9.36
2023-04-29T06:13:36.781Z,9.45
2023-04-29T06:16:03.656Z,9.46
2023-04-29T06:18:30.222Z,9.42
2023-04-29T06:20:56.684Z,9.44
2023-04-29T06:23:23.170Z,9.46
2023-04-29T06:25:51.615Z,9.54
2023-04-29T06:28:19.266Z,9.58
2023-04-29T06:30:46.496Z,9.63
2023-04-29T06:33:13.839Z,9.67
2023-04-29T06:35:41.231Z,9.73
2023-04-29T06:38:10.918Z,9.86
2023-04-29T06:40:37.381Z,9.96
2023-04-29T06:43:04.490Z,10.01
2023-04-29T06:45:31.635Z,10.06
2023-04-29T06:47:58.205Z,10.14
2023-04-29T06:50:24.727Z,10.18
2023-04-29T06:52:51.391Z,10.13
2023-04-29T06:55:17.918Z,10.16
2023-04-29T06:57:44.385Z,10.19
2023-04-29T07:00:11.516Z,10.25
2023-04-29T07:02:39.081Z,10.34
2023-04-29T07:05:06.462Z,10.33
2023-04-29T07:07:33.062Z,10.40
2023-04-29T07:09:59.540Z,10.46
2023-04-29T07:12:26.518Z,10.50
2023-04-29T07:14:53.200Z,10.59
2023-04-29T07:17:20.743Z,10.66
2023-04-29T07:19:47.240Z,10.74
2023-04-29T07:22:13.721Z,10.73
2023-04-29T07:24:40.312Z,10.78
2023-04-29T07:27:06.947Z,10.86
2023-04-29T07:29:33.437Z,10.90
2023-04-29T07:31:59.913Z,10.96
2023-04-29T07:34:26.422Z,10.91
2023-04-29T07:36:52.870Z,11.04
2023-04-29T07:39:19.347Z,11.08
2023-04-29T07:41:45.885Z,11.08
2023-04-29T07:44:12.423Z,11.08
2023-04-29T07:46:39.067Z,11.16
2023-04-29T07:49:06.883Z,11.23
2023-04-29T07:51:33.388Z,11.32
2023-04-29T07:53:59.873Z,11.39
2023-04-29T07:56:26.331Z,11.46
2023-04-29T07:58:52.898Z,11.62
2023-04-29T08:01:19.382Z,11.72
2023-04-29T08:03:45.990Z,11.84
2023-04-29T08:06:13.085Z,11.99
2023-04-29T08:08:39.789Z,12.15
2023-04-29T08:11:06.718Z,12.30
2023-04-29T08:13:33.335Z,12.42
2023-04-29T08:15:59.884Z,12.57
2023-04-29T08:18:26.593Z,12.82
2023-04-29T08:20:53.219Z,13.22
2023-04-29T08:23:19.733Z,13.42
2023-04-29T08:25:46.278Z,13.53
2023-04-29T08:28:12.953Z,13.54
2023-04-29T08:30:40.810Z,13.58
2023-04-29T08:33:08.209Z,13.65
2023-04-29T08:35:37.580Z,13.65
2023-04-29T08:38:07.065Z,13.78
2023-04-29T08:40:36.948Z,13.72
2023-04-29T08:43:04.281Z,13.73
2023-04-29T08:45:31.326Z,13.95
2023-04-29T08:47:58.161Z,14.31
2023-04-29T08:50:25.657Z,14.70
2023-04-29T08:52:52.112Z,15.10
2023-04-29T08:55:19.118Z,15.21
2023-04-29T08:57:45.712Z,15.25
2023-04-29T09:00:13.085Z,15.40
2023-04-29T09:02:43.700Z,15.56
2023-04-29T09:05:11.285Z,15.72
2023-04-29T09:07:41.745Z,15.81
2023-04-29T09:10:08.596Z,15.95
2023-04-29T09:12:36.093Z,16.04
2023-04-29T09:15:03.134Z,16.35
2023-04-29T09:17:45.995Z,16.78
2023-04-29T09:20:22.073Z,17.18
2023-04-29T09:22:52.488Z,17.46
2023-04-29T09:25:19.173Z,17.88
2023-04-29T09:27:45.835Z,18.35
2023-04-29T09:30:13.523Z,18.73
2023-04-29T09:32:40.031Z,19.14
2023-04-29T09:35:32.898Z,19.77
2023-04-29T09:38:19.750Z,20.21
2023-04-29T09:40:57.659Z,20.41
2023-04-29T09:43:25.236Z,20.65
2023-04-29T09:45:51.857Z,20.80
2023-04-29T09:48:18.636Z,21.15
2023-04-29T09:50:46.928Z,21.42
2023-04-29T09:53:13.412Z,21.59
2023-04-29T09:56:01.462Z,21.98
2023-04-29T09:58:31.496Z,22.34
2023-04-29T10:01:03.860Z,22.74
2023-04-29T10:03:38.430Z,22.80
2023-04-29T10:06:06.286Z,23.26
2023-04-29T10:08:33.336Z,23.61
2023-04-29T10:11:02.333Z,24.05
2023-04-29T10:13:29.041Z,24.89
2023-04-29T10:16:16.038Z,25.38
2023-04-29T10:18:44.996Z,26.10
2023-04-29T10:21:11.507Z,26.96
2023-04-29T10:23:38.150Z,27.42
2023-04-29T10:26:04.623Z,27.77
2023-04-29T10:28:32.548Z,27.90
2023-04-29T10:31:04.904Z,28.86
2023-04-29T10:33:31.741Z,28.33
2023-04-29T10:35:58.214Z,26.85
2023-04-29T10:38:36.945Z,25.92
2023-04-29T10:41:06.843Z,26.80
2023-04-29T10:43:33.376Z,26.33
2023-04-29T10:46:18.848Z,26.75
2023-04-29T10:48:49.819Z,25.45
2023-04-29T10:51:31.357Z,24.51
2023-04-29T10:54:01.703Z,24.11
2023-04-29T10:56:37.943Z,23.85
2023-04-29T10:59:04.445Z,24.07
2023-04-29T11:01:43.697Z,25.74
2023-04-29T11:04:11.448Z,28.08
2023-04-29T11:06:40.135Z,30.99
2023-04-29T11:09:12.156Z,32.30
2023-04-29T11:11:46.436Z,33.83
2023-04-29T11:14:13.601Z,34.91
2023-04-29T11:16:51.899Z,36.28
2023-04-29T11:19:18.607Z,36.99
2023-04-29T11:21:46.589Z,34.09
2023-04-29T11:24:15.510Z,34.48
2023-04-29T11:26:42.705Z,34.89
2023-04-29T11:29:12.009Z,34.60
2023-04-29T11:31:41.361Z,34.56
2023-04-29T11:34:08.138Z,34.86
2023-04-29T11:36:34.752Z,35.25
2023-04-29T11:39:02.229Z,35.05
2023-04-29T11:41:28.771Z,34.81
2023-04-29T11:43:57.566Z,34.61
2023-04-29T11:46:24.092Z,35.69
2023-04-29T11:48:50.784Z,36.05
2023-04-29T11:51:17.865Z,36.18
2023-04-29T11:53:44.486Z,37.30
2023-04-29T11:56:11.385Z,37.76
2023-04-29T11:58:37.927Z,38.91
2023-04-29T12:01:04.437Z,39.69
2023-04-29T12:03:32.332Z,37.13
2023-04-29T12:05:59.008Z,38.04
2023-04-29T12:08:26.394Z,40.08
2023-04-29T12:10:54.163Z,38.25
2023-04-29T12:13:20.665Z,35.64
2023-04-29T12:15:47.833Z,34.96
2023-04-29T12:18:14.511Z,36.47
2023-04-29T12:20:41.042Z,37.75
2023-04-29T12:23:14.839Z,38.78
2023-04-29T12:25:41.559Z,37.88
2023-04-29T12:28:14.332Z,37.18
2023-04-29T12:30:40.751Z,38.03
2023-04-29T12:33:09.198Z,39.41
2023-04-29T12:35:36.920Z,39.74
2023-04-29T12:38:03.575Z,39.14
2023-04-29T12:40:30.465Z,39.79
2023-04-29T12:42:57.003Z,39.50
2023-04-29T12:45:27.894Z,37.46
2023-04-29T12:47:56.323Z,34.90
2023-04-29T12:50:29.856Z,32.54
2023-04-29T12:52:56.396Z,31.70
2023-04-29T12:55:22.896Z,34.42
2023-04-29T12:57:49.357Z,36.69
2023-04-29T13:00:16.000Z,37.53
2023-04-29T13:02:42.603Z,38.80
2023-04-29T13:05:09.485Z,40.42
2023-04-29T13:07:37.105Z,42.59
2023-04-29T13:10:06.316Z,43.81
2023-04-29T13:12:33.221Z,45.64
2023-04-29T13:15:00.019Z,45.92
2023-04-29T13:17:26.568Z,46.18
2023-04-29T13:19:53.092Z,47.00
2023-04-29T13:22:19.590Z,44.62
2023-04-29T13:24:46.639Z,45.81
2023-04-29T13:27:13.216Z,44.32
2023-04-29T13:29:40.039Z,43.00
2023-04-29T13:32:06.609Z,41.04
2023-04-29T13:34:33.257Z,40.95
2023-04-29T13:36:59.774Z,41.10
2023-04-29T13:39:26.255Z,41.63
2023-04-29T13:41:58.174Z,42.18
2023-04-29T13:44:33.240Z,41.60
2023-04-29T13:47:06.219Z,41.54
2023-04-29T13:57:50.100Z,42.59
2023-04-29T13:59:53.172Z,42.13
2023-04-29T14:04:49.754Z,41.90
2023-04-29T14:07:16.725Z,42.67
2023-04-29T14:09:43.234Z,43.87
2023-04-29T14:12:09.735Z,44.30
2023-04-29T14:14:36.210Z,43.51
2023-04-29T14:17:03.693Z,43.14
2023-04-29T14:19:30.263Z,44.59
2023-04-29T14:21:56.738Z,44.98
2023-04-29T14:24:23.216Z,43.13
2023-04-29T14:26:49.690Z,41.36
2023-04-29T14:29:16.309Z,38.69
2023-04-29T14:31:42.813Z,37.11
2023-04-29T14:34:09.526Z,36.77
2023-04-29T14:36:36.011Z,36.56
2023-04-29T14:39:03.870Z,35.65
2023-04-29T14:41:30.354Z,34.71
2023-04-29T14:43:56.871Z,33.62
2023-04-29T14:46:23.485Z,33.24
2023-04-29T14:48:50.057Z,33.12
2023-04-29T14:51:16.560Z,33.08
2023-04-29T14:53:43.058Z,33.90
2023-04-29T14:56:09.560Z,34.31
2023-04-29T14:58:36.154Z,34.25
2023-04-29T15:01:02.624Z,33.82
2023-04-29T15:03:29.177Z,32.41
2023-04-29T15:05:56.226Z,31.80
2023-04-29T15:08:22.771Z,29.95
2023-04-29T15:10:50.132Z,27.92
2023-04-29T15:13:16.709Z,27.93
2023-04-29T15:15:43.232Z,27.77
2023-04-29T15:18:09.859Z,27.03
2023-04-29T15:20:36.859Z,27.17
2023-04-29T15:23:03.938Z,26.18
2023-04-29T15:25:30.972Z,24.58
2023-04-29T15:27:59.018Z,23.21
2023-04-29T15:30:28.275Z,22.42
2023-04-29T15:32:55.174Z,21.92
2023-04-29T15:35:22.766Z,21.44
2023-04-29T15:37:49.464Z,21.42
2023-04-29T15:40:16.887Z,21.38
2023-04-29T15:42:43.465Z,21.95
2023-04-29T15:45:10.587Z,24.00
2023-04-29T15:47:37.430Z,26.01
2023-04-29T15:50:04.658Z,26.43
2023-04-29T15:52:31.160Z,26.05
2023-04-29T15:54:58.395Z,25.82
2023-04-29T15:57:25.877Z,24.90
2023-04-29T15:59:52.596Z,23.87
2023-04-29T16:02:20.394Z,22.88
2023-04-29T16:04:46.945Z,22.21
2023-04-29T16:07:13.538Z,21.69
2023-04-29T16:09:40.020Z,21.41
2023-04-29T16:12:06.539Z,21.28
2023-04-29T16:14:33.300Z,21.00
2023-04-29T16:17:00.144Z,21.42
2023-04-29T16:19:26.967Z,21.62
2023-04-29T16:21:53.423Z,21.39
2023-04-29T16:24:19.913Z,20.76
2023-04-29T16:26:48.126Z,20.08
2023-04-29T16:29:14.587Z,19.47
2023-04-29T16:31:41.142Z,18.94
2023-04-29T16:34:07.671Z,18.53
2023-04-29T16:36:34.411Z,18.15
2023-04-29T16:39:00.926Z,17.89
2023-04-29T16:41:27.708Z,17.62
2023-04-29T16:43:54.177Z,17.40
2023-04-29T16:46:20.713Z,17.24
2023-04-29T16:48:47.359Z,17.09
2023-04-29T16:51:13.941Z,16.96
2023-04-29T16:53:40.398Z,16.89
2023-04-29T16:56:07.401Z,16.81
2023-04-29T16:58:33.932Z,16.74
2023-04-29T17:01:00.535Z,16.65
2023-04-29T17:03:27.015Z,16.58
2023-04-29T17:05:54.228Z,16.48
2023-04-29T17:08:21.616Z,16.41
2023-04-29T17:10:48.149Z,16.33
2023-04-29T17:13:14.695Z,16.27
2023-04-29T17:15:41.781Z,16.24
2023-04-29T17:18:08.315Z,16.21
2023-04-29T17:20:35.244Z,16.20
2023-04-29T17:23:01.909Z,16.13
2023-04-29T17:25:28.825Z,16.05
2023-04-29T17:27:55.383Z,15.97
2023-04-29T17:30:23.122Z,15.93
2023-04-29T17:32:50.503Z,15.86
2023-04-29T17:35:17.097Z,15.70
2023-04-29T17:37:44.479Z,15.63
2023-04-29T17:40:11.349Z,15.60
2023-04-29T17:42:37.913Z,15.55
2023-04-29T17:45:04.800Z,15.51
2023-04-29T17:47:31.384Z,15.35
2023-04-29T17:50:00.261Z,15.16
2023-04-29T17:52:28.795Z,15.03
2023-04-29T17:54:55.343Z,14.87
2023-04-29T17:57:21.854Z,14.83
2023-04-29T17:59:48.867Z,14.79
2023-04-29T18:02:15.767Z,14.66
2023-04-29T18:04:42.547Z,14.60
2023-04-29T18:07:09.012Z,14.54
2023-04-29T18:09:35.512Z,14.49
2023-04-29T18:12:02.319Z,14.46
2023-04-29T18:14:30.535Z,14.33
2023-04-29T18:16:59.020Z,14.13
2023-04-29T18:19:25.802Z,13.89
2023-04-29T18:21:52.597Z,13.71
2023-04-29T18:24:19.064Z,13.60
2023-04-29T18:26:45.537Z,13.49
2023-04-29T18:29:11.983Z,13.46
2023-04-29T18:31:38.554Z,13.35
2023-04-29T18:34:05.225Z,13.32
2023-04-29T18:36:32.062Z,13.33
2023-04-29T18:38:58.536Z,13.32
2023-04-29T18:41:25.268Z,13.27
2023-04-29T18:43:51.759Z,13.11
2023-04-29T18:46:18.348Z,12.82
2023-04-29T18:48:44.927Z,12.72
2023-04-29T18:51:11.710Z,12.62
2023-04-29T18:53:38.210Z,12.72
2023-04-29T18:56:04.828Z,12.78
2023-04-29T18:58:31.354Z,12.81
2023-04-29T19:00:59.903Z,12.83
2023-04-29T19:03:27.091Z,12.86
2023-04-29T19:05:53.631Z,12.88
2023-04-29T19:08:20.228Z,12.89
2023-04-29T19:10:46.764Z,12.81
2023-04-29T19:13:13.296Z,12.77
2023-04-29T19:15:39.810Z,12.70
2023-04-29T19:18:06.291Z,12.63
2023-04-29T19:20:32.826Z,12.67
2023-04-29T19:22:59.273Z,12.68
2023-04-29T19:25:28.532Z,12.67
2023-04-29T19:27:55.052Z,12.65
2023-04-29T19:30:21.693Z,12.64
2023-04-29T19:32:48.661Z,12.63
2023-04-29T19:35:15.505Z,12.62
2023-04-29T19:37:42.028Z,12.53
2023-04-29T19:40:11.186Z,12.50
2023-04-29T19:42:38.026Z,12.47
2023-04-29T19:45:07.525Z,12.41
2023-04-29T19:47:34.796Z,12.37
2023-04-29T19:50:01.984Z,12.34
2023-04-29T19:52:29.669Z,12.32
2023-04-29T19:54:56.246Z,12.30
2023-04-29T19:57:22.736Z,12.27
2023-04-29T19:59:49.266Z,12.25
2023-04-29T20:02:15.829Z,12.17
2023-04-29T20:04:42.310Z,12.08
2023-04-29T20:07:08.768Z,11.97
2023-04-29T20:09:35.317Z,11.86
2023-04-29T20:12:03.745Z,11.74
2023-04-29T20:14:30.204Z,11.65
2023-04-29T20:16:58.952Z,11.54
2023-04-29T20:19:26.924Z,11.38
2023-04-29T20:21:53.663Z,11.23
2023-04-29T20:24:20.189Z,11.11
2023-04-29T20:26:46.651Z,10.95
2023-04-29T20:29:13.144Z,10.75
2023-04-29T20:31:39.667Z,10.68
2023-04-29T20:34:06.235Z,10.62
2023-04-29T20:36:32.766Z,10.57
2023-04-29T20:38:59.236Z,10.50
2023-04-29T20:41:29.093Z,10.40
2023-04-29T20:43:56.029Z,10.31
2023-04-29T20:46:24.612Z,10.24
2023-04-29T20:48:52.437Z,10.17
2023-04-29T20:51:18.958Z,10.10
2023-04-29T20:53:45.906Z,9.98
2023-04-29T20:56:13.540Z,9.90
2023-04-29T20:58:40.032Z,9.83
2023-04-29T21:01:06.546Z,9.78
2023-04-29T21:03:33.027Z,9.76
2023-04-29T21:05:59.526Z,9.69
2023-04-29T21:08:26.187Z,9.61
2023-04-29T21:10:52.710Z,9.54
2023-04-29T21:13:19.185Z,9.52
2023-04-29T21:15:46.446Z,9.48
2023-04-29T21:18:13.414Z,9.43
2023-04-29T21:20:39.991Z,9.37
2023-04-29T21:23:06.477Z,9.32
2023-04-29T21:25:33.568Z,9.24
2023-04-29T21:28:00.039Z,9.18
2023-04-29T21:30:26.795Z,9.14
2023-04-29T21:32:53.946Z,9.10
2023-04-29T21:35:20.647Z,9.08
2023-04-29T21:37:47.356Z,9.07
2023-04-29T21:40:14.424Z,9.05
2023-04-29T21:42:41.636Z,9.03
2023-04-29T21:45:08.256Z,9.02
2023-04-29T21:47:34.804Z,8.92
2023-04-29T21:50:01.327Z,8.91
2023-04-29T21:52:27.809Z,8.85
2023-04-29T21:54:54.356Z,8.87
2023-04-29T21:57:28.840Z,8.89
2023-04-29T22:00:10.628Z,8.82
2023-04-29T22:02:42.369Z,8.77
2023-04-29T22:05:09.219Z,8.63
2023-04-29T22:07:35.732Z,8.55
2023-04-29T22:10:02.402Z,8.46
2023-04-29T22:12:28.890Z,8.44
2023-04-29T22:14:55.881Z,8.39
2023-04-29T22:17:22.386Z,8.32
2023-04-29T22:19:49.364Z,8.28
2023-04-29T22:22:15.824Z,8.26
2023-04-29T22:24:42.326Z,8.25
2023-04-29T22:27:08.790Z,8.26
2023-04-29T22:29:35.440Z,8.21
2023-04-29T22:32:02.077Z,8.20
2023-04-29T22:34:28.797Z,8.19
2023-04-29T22:36:55.285Z,8.23
2023-04-29T22:39:21.729Z,8.22
2023-04-29T22:41:48.259Z,8.16
2023-04-29T22:44:15.462Z,8.12
2023-04-29T22:46:41.970Z,8.08
2023-04-29T22:49:08.546Z,8.08
2023-04-29T22:51:35.133Z,8.06
2023-04-29T22:54:01.627Z,8.05
2023-04-29T22:56:28.873Z,8.04
2023-04-29T22:58:55.514Z,8.02
2023-04-29T23:01:22.091Z,8.00
2023-04-29T23:03:48.574Z,7.99
2023-04-29T23:06:15.067Z,8.02
2023-04-29T23:08:41.545Z,7.98
2023-04-29T23:11:08.035Z,7.98
2023-04-29T23:13:34.507Z,7.96
2023-04-29T23:16:01.449Z,7.96
2023-04-29T23:18:27.997Z,7.96
2023-04-29T23:20:55.563Z,7.97
2023-04-29T23:23:22.101Z,7.97
2023-04-29T23:25:49.020Z,7.98
2023-04-29T23:28:16.343Z,8.04
2023-04-29T23:30:42.881Z,8.03
2023-04-29T23:33:09.513Z,8.08
2023-04-29T23:35:36.222Z,8.11
2023-04-29T23:38:02.694Z,8.11
2023-04-29T23:40:30.228Z,8.11
2023-04-29T23:42:57.729Z,8.14
2023-04-29T23:45:24.186Z,8.18
2023-04-29T23:47:50.692Z,8.20
2023-04-29T23:50:17.240Z,8.16
2023-04-29T23:52:43.865Z,8.12
2023-04-29T23:55:10.433Z,8.07
2023-04-29T23:57:36.887Z,7.99
